sensor_id;sensor_type;location;lat;lon;timestamp;pressure;altitude;pressure_sealevel;temperature;humidity
20037;BME280;10179;42.640;23.312;2022-07-01T00:02:07;93720.03;;;26.26;40.39
20037;BME280;10179;42.640;23.312;2022-07-01T00:04:32;93720.38;;;26.16;40.45
20037;BME280;10179;42.640;23.312;2022-07-01T00:06:58;93723.06;;;26.16;40.36
20037;BME280;10179;42.640;23.312;2022-07-01T00:09:23;93718.78;;;26.15;40.60
20037;BME280;10179;42.640;23.312;2022-07-01T00:11:49;93723.50;;;26.18;40.61
20037;BME280;10179;42.640;23.312;2022-07-01T00:14:15;93712.75;;;26.18;40.58
20037;BME280;10179;42.640;23.312;2022-07-01T00:16:41;93725.91;;;26.20;40.91
20037;BME280;10179;42.640;23.312;2022-07-01T00:19:07;93723.50;;;26.18;40.79
20037;BME280;10179;42.640;23.312;2022-07-01T00:21:33;93729.19;;;26.25;40.72
20037;BME280;10179;42.640;23.312;2022-07-01T00:23:58;93726.06;;;26.23;40.80
20037;BME280;10179;42.640;23.312;2022-07-01T00:26:24;93735.25;;;26.22;40.96
20037;BME280;10179;42.640;23.312;2022-07-01T00:28:50;93728.44;;;26.07;41.25
20037;BME280;10179;42.640;23.312;2022-07-01T00:31:15;93742.09;;;26.02;41.62
20037;BME280;10179;42.640;23.312;2022-07-01T00:33:40;93709.31;;;25.74;41.48
20037;BME280;10179;42.640;23.312;2022-07-01T00:36:06;93695.69;;;25.62;41.95
20037;BME280;10179;42.640;23.312;2022-07-01T00:38:31;93746.69;;;25.84;42.26
20037;BME280;10179;42.640;23.312;2022-07-01T00:40:57;93734.00;;;25.76;42.26
20037;BME280;10179;42.640;23.312;2022-07-01T00:43:23;93719.78;;;25.67;42.70
20037;BME280;10179;42.640;23.312;2022-07-01T00:45:50;93741.63;;;25.74;42.79
20037;BME280;10179;42.640;23.312;2022-07-01T00:48:16;93742.25;;;25.71;42.63
20037;BME280;10179;42.640;23.312;2022-07-01T00:50:43;93737.97;;;25.70;42.85
20037;BME280;10179;42.640;23.312;2022-07-01T00:53:09;93560.31;;;24.54;42.98
20037;BME280;10179;42.640;23.312;2022-07-01T00:55:35;93720.09;;;25.57;43.33
20037;BME280;10179;42.640;23.312;2022-07-01T00:58:00;93685.91;;;25.22;43.43
20037;BME280;10179;42.640;23.312;2022-07-01T01:00:25;93603.28;;;24.71;43.56
20037;BME280;10179;42.640;23.312;2022-07-01T01:02:54;93745.56;;;25.59;43.34
20037;BME280;10179;42.640;23.312;2022-07-01T01:05:20;93747.00;;;25.57;43.85
20037;BME280;10179;42.640;23.312;2022-07-01T01:07:50;93686.84;;;25.18;43.85
20037;BME280;10179;42.640;23.312;2022-07-01T01:10:16;93682.38;;;25.05;43.87
20037;BME280;10179;42.640;23.312;2022-07-01T01:12:42;93747.78;;;25.49;43.94
20037;BME280;10179;42.640;23.312;2022-07-01T01:15:08;93740.81;;;25.39;44.18
20037;BME280;10179;42.640;23.312;2022-07-01T01:17:34;93738.91;;;25.39;44.22
20037;BME280;10179;42.640;23.312;2022-07-01T01:19:59;93749.19;;;25.37;44.42
20037;BME280;10179;42.640;23.312;2022-07-01T01:22:25;93702.47;;;25.07;44.15
20037;BME280;10179;42.640;23.312;2022-07-01T01:24:50;93746.31;;;25.34;44.39
20037;BME280;10179;42.640;23.312;2022-07-01T01:27:16;93691.56;;;25.04;44.31
20037;BME280;10179;42.640;23.312;2022-07-01T01:29:42;93691.84;;;25.02;44.24
20037;BME280;10179;42.640;23.312;2022-07-01T01:32:08;93720.69;;;25.19;44.37
20037;BME280;10179;42.640;23.312;2022-07-01T01:34:35;93685.84;;;24.96;44.35
20037;BME280;10179;42.640;23.312;2022-07-01T01:37:05;93697.56;;;25.00;44.16
20037;BME280;10179;42.640;23.312;2022-07-01T01:39:31;93740.94;;;25.25;44.34
20037;BME280;10179;42.640;23.312;2022-07-01T01:41:56;93740.47;;;25.23;44.49
20037;BME280;10179;42.640;23.312;2022-07-01T01:44:22;93733.84;;;25.20;44.69
20037;BME280;10179;42.640;23.312;2022-07-01T01:46:47;93743.47;;;25.21;44.64
20037;BME280;10179;42.640;23.312;2022-07-01T01:49:13;93749.16;;;25.20;44.74
20037;BME280;10179;42.640;23.312;2022-07-01T01:51:38;93756.13;;;25.21;44.79
20037;BME280;10179;42.640;23.312;2022-07-01T01:54:04;93756.13;;;25.21;44.77
20037;BME280;10179;42.640;23.312;2022-07-01T01:56:30;93724.25;;;24.97;44.69
20037;BME280;10179;42.640;23.312;2022-07-01T01:58:56;93762.13;;;25.18;45.04
20037;BME280;10179;42.640;23.312;2022-07-01T02:01:22;93768.91;;;25.15;44.93
20037;BME280;10179;42.640;23.312;2022-07-01T02:03:49;93763.38;;;25.12;44.97
20037;BME280;10179;42.640;23.312;2022-07-01T02:06:17;93771.56;;;25.07;45.19
20037;BME280;10179;42.640;23.312;2022-07-01T02:08:43;93702.22;;;24.69;44.93
20037;BME280;10179;42.640;23.312;2022-07-01T02:11:09;93756.84;;;25.04;45.03
20037;BME280;10179;42.640;23.312;2022-07-01T02:13:35;93755.09;;;24.99;45.29
20037;BME280;10179;42.640;23.312;2022-07-01T02:16:01;93751.94;;;24.97;45.35
20037;BME280;10179;42.640;23.312;2022-07-01T02:18:27;93755.84;;;24.91;45.50
20037;BME280;10179;42.640;23.312;2022-07-01T02:20:53;93709.44;;;24.60;45.38
20037;BME280;10179;42.640;23.312;2022-07-01T02:23:19;93770.13;;;25.00;45.36
20037;BME280;10179;42.640;23.312;2022-07-01T02:25:45;93775.16;;;25.02;45.59
20037;BME280;10179;42.640;23.312;2022-07-01T02:28:11;93775.97;;;25.03;45.29
20037;BME280;10179;42.640;23.312;2022-07-01T02:30:37;93777.06;;;25.02;45.26
20037;BME280;10179;42.640;23.312;2022-07-01T02:33:06;93729.81;;;24.52;45.33
20037;BME280;10179;42.640;23.312;2022-07-01T02:35:33;93776.53;;;24.82;45.62
20037;BME280;10179;42.640;23.312;2022-07-01T02:37:59;93785.06;;;24.84;45.66
20037;BME280;10179;42.640;23.312;2022-07-01T02:40:25;93781.91;;;24.82;45.82
20037;BME280;10179;42.640;23.312;2022-07-01T02:42:51;93789.84;;;24.87;45.78
20037;BME280;10179;42.640;23.312;2022-07-01T02:45:16;93794.25;;;24.83;45.88
20037;BME280;10179;42.640;23.312;2022-07-01T02:47:42;93776.47;;;24.65;45.96
20037;BME280;10179;42.640;23.312;2022-07-01T02:50:09;93796.09;;;24.74;46.15
20037;BME280;10179;42.640;23.312;2022-07-01T02:52:36;93799.22;;;24.67;46.17
20037;BME280;10179;42.640;23.312;2022-07-01T02:55:08;93803.94;;;24.62;46.50
20037;BME280;10179;42.640;23.312;2022-07-01T02:57:34;93759.81;;;24.23;46.82
20037;BME280;10179;42.640;23.312;2022-07-01T03:00:00;93784.00;;;24.32;47.03
20037;BME280;10179;42.640;23.312;2022-07-01T03:02:27;93791.88;;;24.28;46.98
20037;BME280;10179;42.640;23.312;2022-07-01T03:04:53;93802.50;;;24.33;47.46
20037;BME280;10179;42.640;23.312;2022-07-01T03:07:19;93807.50;;;24.26;47.56
20037;BME280;10179;42.640;23.312;2022-07-01T03:09:46;93810.31;;;24.21;47.94
20037;BME280;10179;42.640;23.312;2022-07-01T03:12:12;93806.16;;;24.15;48.31
20037;BME280;10179;42.640;23.312;2022-07-01T03:17:19;93791.63;;;23.93;48.50
20037;BME280;10179;42.640;23.312;2022-07-01T03:19:45;93824.47;;;24.13;48.69
20037;BME280;10179;42.640;23.312;2022-07-01T03:22:10;93803.25;;;24.02;48.88
20037;BME280;10179;42.640;23.312;2022-07-01T03:24:36;93589.19;;;22.65;48.97
20037;BME280;10179;42.640;23.312;2022-07-01T03:27:01;93798.25;;;24.10;49.31
20037;BME280;10179;42.640;23.312;2022-07-01T03:29:27;93817.00;;;24.32;49.05
20037;BME280;10179;42.640;23.312;2022-07-01T03:31:52;93796.41;;;24.19;48.83
20037;BME280;10179;42.640;23.312;2022-07-01T03:34:18;93822.22;;;24.51;48.75
20037;BME280;10179;42.640;23.312;2022-07-01T03:36:43;93817.38;;;24.62;48.51
20037;BME280;10179;42.640;23.312;2022-07-01T03:39:08;93828.94;;;24.71;48.36
20037;BME280;10179;42.640;23.312;2022-07-01T03:41:34;93800.31;;;24.66;48.00
20037;BME280;10179;42.640;23.312;2022-07-01T03:43:59;93798.81;;;24.83;47.51
20037;BME280;10179;42.640;23.312;2022-07-01T03:46:24;93810.44;;;25.00;47.10
20037;BME280;10179;42.640;23.312;2022-07-01T03:48:50;93820.81;;;25.25;47.02
20037;BME280;10179;42.640;23.312;2022-07-01T03:51:15;93798.53;;;25.24;46.52
20037;BME280;10179;42.640;23.312;2022-07-01T03:53:41;93806.75;;;25.36;46.16
20037;BME280;10179;42.640;23.312;2022-07-01T03:56:24;93818.66;;;25.61;45.56
20037;BME280;10179;42.640;23.312;2022-07-01T03:58:50;93797.78;;;25.58;45.70
20037;BME280;10179;42.640;23.312;2022-07-01T04:01:15;93819.19;;;25.89;45.71
20037;BME280;10179;42.640;23.312;2022-07-01T04:03:40;93805.59;;;25.94;44.67
20037;BME280;10179;42.640;23.312;2022-07-01T04:06:06;93822.50;;;26.21;44.41
20037;BME280;10179;42.640;23.312;2022-07-01T04:08:32;93800.81;;;26.26;43.99
20037;BME280;10179;42.640;23.312;2022-07-01T04:10:57;93801.13;;;26.51;43.48
20037;BME280;10179;42.640;23.312;2022-07-01T04:13:23;93829.25;;;26.79;42.89
20037;BME280;10179;42.640;23.312;2022-07-01T04:15:49;93828.41;;;26.96;42.30
20037;BME280;10179;42.640;23.312;2022-07-01T04:18:15;93821.69;;;27.02;42.05
20037;BME280;10179;42.640;23.312;2022-07-01T04:20:40;93837.06;;;27.19;41.86
20037;BME280;10179;42.640;23.312;2022-07-01T04:23:06;93831.16;;;27.26;41.47
20037;BME280;10179;42.640;23.312;2022-07-01T04:25:31;93825.75;;;27.26;41.07
20037;BME280;10179;42.640;23.312;2022-07-01T04:27:56;93848.31;;;27.51;41.01
20037;BME280;10179;42.640;23.312;2022-07-01T04:30:22;93832.78;;;27.48;41.68
20037;BME280;10179;42.640;23.312;2022-07-01T04:32:48;93829.53;;;27.63;41.95
20037;BME280;10179;42.640;23.312;2022-07-01T04:35:13;93840.91;;;27.77;40.60
20037;BME280;10179;42.640;23.312;2022-07-01T04:37:40;93851.88;;;27.93;40.67
20037;BME280;10179;42.640;23.312;2022-07-01T04:40:06;93841.31;;;28.09;40.12
20037;BME280;10179;42.640;23.312;2022-07-01T04:42:32;93804.31;;;28.01;39.38
20037;BME280;10179;42.640;23.312;2022-07-01T04:44:57;93842.81;;;28.40;39.08
20037;BME280;10179;42.640;23.312;2022-07-01T04:47:22;93804.78;;;28.24;39.32
20037;BME280;10179;42.640;23.312;2022-07-01T04:49:49;93820.06;;;28.41;39.06
20037;BME280;10179;42.640;23.312;2022-07-01T04:52:14;93843.94;;;28.72;39.00
20037;BME280;10179;42.640;23.312;2022-07-01T04:54:40;93736.16;;;28.04;39.43
20037;BME280;10179;42.640;23.312;2022-07-01T04:57:06;93844.06;;;28.88;39.50
20037;BME280;10179;42.640;23.312;2022-07-01T04:59:32;93830.13;;;28.86;38.91
20037;BME280;10179;42.640;23.312;2022-07-01T05:01:57;93823.34;;;28.92;38.32
20037;BME280;10179;42.640;23.312;2022-07-01T05:04:23;93841.22;;;29.17;38.89
20037;BME280;10179;42.640;23.312;2022-07-01T05:06:51;93847.78;;;29.29;37.86
20037;BME280;10179;42.640;23.312;2022-07-01T05:09:17;93840.31;;;29.38;38.02
20037;BME280;10179;42.640;23.312;2022-07-01T05:11:42;93851.97;;;29.38;38.04
20037;BME280;10179;42.640;23.312;2022-07-01T05:14:08;93848.91;;;29.40;38.24
20037;BME280;10179;42.640;23.312;2022-07-01T05:16:35;93848.00;;;29.36;38.02
20037;BME280;10179;42.640;23.312;2022-07-01T05:19:02;93853.97;;;29.41;37.54
20037;BME280;10179;42.640;23.312;2022-07-01T05:21:46;93849.69;;;29.40;37.61
20037;BME280;10179;42.640;23.312;2022-07-01T05:24:31;93852.97;;;29.46;37.98
20037;BME280;10179;42.640;23.312;2022-07-01T05:26:58;93856.56;;;29.50;37.68
20037;BME280;10179;42.640;23.312;2022-07-01T05:29:23;93805.03;;;29.22;37.63
20037;BME280;10179;42.640;23.312;2022-07-01T05:31:49;93860.00;;;29.59;37.83
20037;BME280;10179;42.640;23.312;2022-07-01T05:34:14;93715.38;;;28.74;37.37
20037;BME280;10179;42.640;23.312;2022-07-01T05:36:40;93856.34;;;29.80;37.98
20037;BME280;10179;42.640;23.312;2022-07-01T05:39:05;93834.78;;;29.83;38.12
20037;BME280;10179;42.640;23.312;2022-07-01T05:41:31;93849.50;;;30.10;37.01
20037;BME280;10179;42.640;23.312;2022-07-01T05:43:58;93845.91;;;30.18;37.01
20037;BME280;10179;42.640;23.312;2022-07-01T05:46:23;93845.78;;;30.27;36.99
20037;BME280;10179;42.640;23.312;2022-07-01T05:48:49;93848.69;;;30.34;36.76
20037;BME280;10179;42.640;23.312;2022-07-01T05:51:14;93834.09;;;30.39;36.70
20037;BME280;10179;42.640;23.312;2022-07-01T05:53:40;93844.09;;;30.51;36.80
20037;BME280;10179;42.640;23.312;2022-07-01T05:56:06;93813.09;;;30.36;36.58
20037;BME280;10179;42.640;23.312;2022-07-01T05:58:32;93832.22;;;30.55;36.64
20037;BME280;10179;42.640;23.312;2022-07-01T06:00:57;93849.75;;;30.74;36.38
20037;BME280;10179;42.640;23.312;2022-07-01T06:03:22;93812.78;;;30.53;35.69
20037;BME280;10179;42.640;23.312;2022-07-01T06:05:48;93853.91;;;30.83;35.94
20037;BME280;10179;42.640;23.312;2022-07-01T06:08:13;93855.94;;;30.86;35.44
20037;BME280;10179;42.640;23.312;2022-07-01T06:10:39;93856.97;;;30.82;35.56
20037;BME280;10179;42.640;23.312;2022-07-01T06:13:05;93786.69;;;30.33;36.18
20037;BME280;10179;42.640;23.312;2022-07-01T06:15:31;93852.88;;;30.88;35.81
20037;BME280;10179;42.640;23.312;2022-07-01T06:17:56;93863.13;;;30.95;35.99
20037;BME280;10179;42.640;23.312;2022-07-01T06:20:22;93860.25;;;31.03;35.74
20037;BME280;10179;42.640;23.312;2022-07-01T06:22:48;93849.13;;;31.08;35.79
20037;BME280;10179;42.640;23.312;2022-07-01T06:25:13;93852.88;;;31.20;35.85
20037;BME280;10179;42.640;23.312;2022-07-01T06:27:40;93857.56;;;31.35;35.45
20037;BME280;10179;42.640;23.312;2022-07-01T06:30:07;93870.53;;;31.42;34.96
20037;BME280;10179;42.640;23.312;2022-07-01T06:32:32;93799.81;;;31.06;35.48
20037;BME280;10179;42.640;23.312;2022-07-01T06:34:58;93859.31;;;31.43;35.43
20037;BME280;10179;42.640;23.312;2022-07-01T06:37:23;93871.50;;;31.49;35.05
20037;BME280;10179;42.640;23.312;2022-07-01T06:39:49;93862.66;;;31.52;35.24
20037;BME280;10179;42.640;23.312;2022-07-01T06:42:14;93858.88;;;31.57;35.20
20037;BME280;10179;42.640;23.312;2022-07-01T06:44:40;93789.59;;;31.16;35.54
20037;BME280;10179;42.640;23.312;2022-07-01T06:47:05;93850.81;;;31.60;35.19
20037;BME280;10179;42.640;23.312;2022-07-01T06:49:31;93856.84;;;31.70;35.11
20037;BME280;10179;42.640;23.312;2022-07-01T06:51:56;93768.03;;;31.23;35.37
20037;BME280;10179;42.640;23.312;2022-07-01T06:54:21;93863.22;;;31.93;34.50
20037;BME280;10179;42.640;23.312;2022-07-01T06:56:47;93867.84;;;32.08;34.69
20037;BME280;10179;42.640;23.312;2022-07-01T06:59:12;93867.69;;;32.21;34.27
20037;BME280;10179;42.640;23.312;2022-07-01T07:01:40;93861.31;;;32.32;33.88
20037;BME280;10179;42.640;23.312;2022-07-01T07:04:06;93832.00;;;32.22;34.22
20037;BME280;10179;42.640;23.312;2022-07-01T07:06:31;93862.72;;;32.62;33.66
20037;BME280;10179;42.640;23.312;2022-07-01T07:08:56;93843.19;;;32.56;33.83
20037;BME280;10179;42.640;23.312;2022-07-01T07:11:22;93864.44;;;32.70;33.51
20037;BME280;10179;42.640;23.312;2022-07-01T07:13:47;93859.13;;;32.77;33.00
20037;BME280;10179;42.640;23.312;2022-07-01T07:16:13;93835.22;;;32.67;32.76
20037;BME280;10179;42.640;23.312;2022-07-01T07:18:39;93862.53;;;32.93;32.87
20037;BME280;10179;42.640;23.312;2022-07-01T07:21:04;93870.88;;;33.00;33.00
20037;BME280;10179;42.640;23.312;2022-07-01T07:23:30;93874.44;;;33.05;32.82
20037;BME280;10179;42.640;23.312;2022-07-01T07:25:55;93843.06;;;32.91;32.32
20037;BME280;10179;42.640;23.312;2022-07-01T07:28:21;93866.78;;;33.10;32.40
20037;BME280;10179;42.640;23.312;2022-07-01T07:30:47;93878.19;;;33.19;32.07
20037;BME280;10179;42.640;23.312;2022-07-01T07:33:12;93876.38;;;33.27;32.04
20037;BME280;10179;42.640;23.312;2022-07-01T07:35:38;93854.59;;;33.27;31.89
20037;BME280;10179;42.640;23.312;2022-07-01T07:38:03;93870.53;;;33.48;31.64
20037;BME280;10179;42.640;23.312;2022-07-01T07:40:29;93875.25;;;33.51;32.12
20037;BME280;10179;42.640;23.312;2022-07-01T07:42:54;93869.09;;;33.54;31.34
20037;BME280;10179;42.640;23.312;2022-07-01T07:45:19;93862.13;;;33.57;31.32
20037;BME280;10179;42.640;23.312;2022-07-01T07:47:46;93874.69;;;33.65;31.26
20037;BME280;10179;42.640;23.312;2022-07-01T07:50:15;93866.22;;;33.70;31.76
20037;BME280;10179;42.640;23.312;2022-07-01T07:52:41;93821.75;;;33.66;31.52
20037;BME280;10179;42.640;23.312;2022-07-01T07:55:08;93865.94;;;34.02;31.27
20037;BME280;10179;42.640;23.312;2022-07-01T07:57:39;93866.88;;;34.13;31.34
20037;BME280;10179;42.640;23.312;2022-07-01T08:00:06;93844.22;;;34.09;31.15
20037;BME280;10179;42.640;23.312;2022-07-01T08:02:32;93829.00;;;34.08;31.43
20037;BME280;10179;42.640;23.312;2022-07-01T08:04:57;93862.59;;;34.46;31.29
20037;BME280;10179;42.640;23.312;2022-07-01T08:07:23;93863.53;;;34.57;30.81
20037;BME280;10179;42.640;23.312;2022-07-01T08:09:48;93851.97;;;34.67;30.95
20037;BME280;10179;42.640;23.312;2022-07-01T08:12:15;93854.38;;;34.72;30.46
20037;BME280;10179;42.640;23.312;2022-07-01T08:14:40;93823.44;;;34.61;30.54
20037;BME280;10179;42.640;23.312;2022-07-01T08:17:06;93862.91;;;35.01;30.23
20037;BME280;10179;42.640;23.312;2022-07-01T08:19:31;93836.13;;;35.17;29.82
20037;BME280;10179;42.640;23.312;2022-07-01T08:21:56;93800.63;;;35.21;29.54
20037;BME280;10179;42.640;23.312;2022-07-01T08:24:22;93799.63;;;35.40;29.40
20037;BME280;10179;42.640;23.312;2022-07-01T08:26:47;93815.59;;;35.85;28.51
20037;BME280;10179;42.640;23.312;2022-07-01T08:29:13;93843.91;;;36.11;28.15
20037;BME280;10179;42.640;23.312;2022-07-01T08:31:38;93756.97;;;35.79;28.15
20037;BME280;10179;42.640;23.312;2022-07-01T08:34:04;93840.63;;;36.64;28.15
20037;BME280;10179;42.640;23.312;2022-07-01T08:36:29;93775.28;;;36.48;28.19
20037;BME280;10179;42.640;23.312;2022-07-01T08:38:54;93826.69;;;36.98;27.81
20037;BME280;10179;42.640;23.312;2022-07-01T08:41:20;93839.22;;;37.13;27.43
20037;BME280;10179;42.640;23.312;2022-07-01T08:43:46;93837.66;;;37.23;27.65
20037;BME280;10179;42.640;23.312;2022-07-01T08:46:12;93844.72;;;37.38;27.39
20037;BME280;10179;42.640;23.312;2022-07-01T08:48:42;93846.72;;;37.52;27.35
20037;BME280;10179;42.640;23.312;2022-07-01T08:51:08;93838.09;;;37.57;26.11
20037;BME280;10179;42.640;23.312;2022-07-01T08:53:34;93720.59;;;36.84;26.42
20037;BME280;10179;42.640;23.312;2022-07-01T08:56:00;93842.81;;;37.75;26.01
20037;BME280;10179;42.640;23.312;2022-07-01T08:58:44;93799.31;;;37.41;25.31
20037;BME280;10179;42.640;23.312;2022-07-01T09:01:19;93836.91;;;37.72;25.31
20037;BME280;10179;42.640;23.312;2022-07-01T09:03:52;93847.50;;;37.85;25.73
20037;BME280;10179;42.640;23.312;2022-07-01T09:06:23;93848.66;;;37.91;24.68
20037;BME280;10179;42.640;23.312;2022-07-01T09:08:49;93815.38;;;37.67;24.59
20037;BME280;10179;42.640;23.312;2022-07-01T09:11:17;93848.28;;;37.89;24.52
20037;BME280;10179;42.640;23.312;2022-07-01T09:13:43;93836.53;;;37.92;24.66
20037;BME280;10179;42.640;23.312;2022-07-01T09:16:15;93840.44;;;37.98;24.43
20037;BME280;10179;42.640;23.312;2022-07-01T09:19:03;93835.75;;;37.84;24.72
20037;BME280;10179;42.640;23.312;2022-07-01T09:21:30;93840.44;;;37.73;24.77
20037;BME280;10179;42.640;23.312;2022-07-01T09:23:58;93833.41;;;37.72;24.78
20037;BME280;10179;42.640;23.312;2022-07-01T09:26:23;93841.22;;;37.66;24.65
20037;BME280;10179;42.640;23.312;2022-07-01T09:28:56;93845.16;;;37.58;24.46
20037;BME280;10179;42.640;23.312;2022-07-01T09:31:30;93842.03;;;37.56;25.21
20037;BME280;10179;42.640;23.312;2022-07-01T09:34:06;93841.22;;;37.59;25.00
20037;BME280;10179;42.640;23.312;2022-07-01T09:36:37;93839.28;;;37.63;24.68
20037;BME280;10179;42.640;23.312;2022-07-01T09:39:04;93833.41;;;37.72;22.64
20037;BME280;10179;42.640;23.312;2022-07-01T09:41:37;93831.03;;;37.85;22.30
20037;BME280;10179;42.640;23.312;2022-07-01T09:44:06;93794.22;;;37.79;21.54
20037;BME280;10179;42.640;23.312;2022-07-01T09:46:33;93771.88;;;37.77;21.69
20037;BME280;10179;42.640;23.312;2022-07-01T09:48:58;93818.03;;;38.25;21.44
20037;BME280;10179;42.640;23.312;2022-07-01T09:51:24;93827.00;;;38.43;20.13
20037;BME280;10179;42.640;23.312;2022-07-01T09:53:50;93820.72;;;38.46;19.88
20037;BME280;10179;42.640;23.312;2022-07-01T09:56:15;93819.88;;;38.56;20.22
20037;BME280;10179;42.640;23.312;2022-07-01T09:58:41;93771.38;;;38.25;20.14
20037;BME280;10179;42.640;23.312;2022-07-01T10:01:10;93714.25;;;37.87;19.81
20037;BME280;10179;42.640;23.312;2022-07-01T10:03:37;93814.75;;;38.65;19.95
20037;BME280;10179;42.640;23.312;2022-07-01T10:06:24;93814.31;;;38.71;19.30
20037;BME280;10179;42.640;23.312;2022-07-01T10:09:26;93813.13;;;38.72;19.58
20037;BME280;10179;42.640;23.312;2022-07-01T10:14:43;93812.72;;;38.84;19.28
20037;BME280;10179;42.640;23.312;2022-07-01T10:17:09;93807.78;;;39.17;18.30
20037;BME280;10179;42.640;23.312;2022-07-01T10:19:35;93806.34;;;39.57;18.63
20037;BME280;10179;42.640;23.312;2022-07-01T10:22:26;93800.88;;;39.98;18.98
20037;BME280;10179;42.640;23.312;2022-07-01T10:24:52;93804.72;;;40.04;18.06
20037;BME280;10179;42.640;23.312;2022-07-01T10:27:25;93798.03;;;40.05;18.27
20037;BME280;10179;42.640;23.312;2022-07-01T10:30:12;93798.09;;;39.98;18.21
20037;BME280;10179;42.640;23.312;2022-07-01T10:32:48;93803.00;;;39.80;16.73
20037;BME280;10179;42.640;23.312;2022-07-01T10:35:14;93794.81;;;39.73;16.55
20037;BME280;10179;42.640;23.312;2022-07-01T10:37:59;93781.38;;;39.82;16.35
20037;BME280;10179;42.640;23.312;2022-07-01T10:40:40;93789.44;;;40.00;16.24
20037;BME280;10179;42.640;23.312;2022-07-01T10:43:06;93783.97;;;40.34;15.43
20037;BME280;10179;42.640;23.312;2022-07-01T10:45:41;93771.06;;;40.62;14.59
20037;BME280;10179;42.640;23.312;2022-07-01T10:48:20;93781.06;;;41.06;13.16
20037;BME280;10179;42.640;23.312;2022-07-01T10:50:46;93770.94;;;41.23;12.56
20037;BME280;10179;42.640;23.312;2022-07-01T10:53:15;93742.00;;;41.11;12.13
20037;BME280;10179;42.640;23.312;2022-07-01T10:55:45;93767.72;;;41.28;12.13
20037;BME280;10179;42.640;23.312;2022-07-01T10:58:11;93758.72;;;41.24;12.13
20037;BME280;10179;42.640;23.312;2022-07-01T11:00:41;93754.34;;;41.27;12.83
20037;BME280;10179;42.640;23.312;2022-07-01T11:03:12;93766.31;;;41.43;13.47
20037;BME280;10179;42.640;23.312;2022-07-01T11:05:38;93749.28;;;41.48;13.88
20037;BME280;10179;42.640;23.312;2022-07-01T11:08:05;93776.22;;;41.88;13.60
20037;BME280;10179;42.640;23.312;2022-07-01T11:10:31;93772.38;;;42.02;13.65
20037;BME280;10179;42.640;23.312;2022-07-01T11:12:59;93769.06;;;41.90;13.04
20037;BME280;10179;42.640;23.312;2022-07-01T11:15:26;93768.13;;;41.54;13.90
20037;BME280;10179;42.640;23.312;2022-07-01T11:17:52;93752.78;;;40.98;14.55
20037;BME280;10179;42.640;23.312;2022-07-01T11:20:22;93772.44;;;40.73;14.37
20037;BME280;10179;42.640;23.312;2022-07-01T11:22:48;93733.16;;;40.04;14.60
20037;BME280;10179;42.640;23.312;2022-07-01T11:25:13;93716.50;;;39.43;15.33
20037;BME280;10179;42.640;23.312;2022-07-01T11:27:39;93709.06;;;38.88;16.27
20037;BME280;10179;42.640;23.312;2022-07-01T11:30:09;93764.78;;;38.88;16.16
20037;BME280;10179;42.640;23.312;2022-07-01T11:32:46;93776.34;;;38.58;16.77
20037;BME280;10179;42.640;23.312;2022-07-01T11:35:17;93710.34;;;37.88;17.24
20037;BME280;10179;42.640;23.312;2022-07-01T11:38:09;93741.69;;;37.77;17.52
20037;BME280;10179;42.640;23.312;2022-07-01T11:40:54;93759.78;;;37.60;17.96
20037;BME280;10179;42.640;23.312;2022-07-01T11:43:23;93754.69;;;37.44;19.15
20037;BME280;10179;42.640;23.312;2022-07-01T11:45:48;93678.75;;;36.84;18.68
20037;BME280;10179;42.640;23.312;2022-07-01T11:48:32;93734.31;;;37.16;18.39
20037;BME280;10179;42.640;23.312;2022-07-01T11:50:58;93739.44;;;37.07;18.72
20037;BME280;10179;42.640;23.312;2022-07-01T11:53:24;93698.69;;;36.73;18.26
20037;BME280;10179;42.640;23.312;2022-07-01T11:55:49;93739.41;;;36.93;17.79
20037;BME280;10179;42.640;23.312;2022-07-01T11:58:14;93718.63;;;36.70;17.83
20037;BME280;10179;42.640;23.312;2022-07-01T12:00:40;93718.63;;;36.70;17.64
20037;BME280;10179;42.640;23.312;2022-07-01T12:03:05;93737.00;;;36.66;17.53
20037;BME280;10179;42.640;23.312;2022-07-01T12:05:34;93689.22;;;36.39;17.71
20037;BME280;10179;42.640;23.312;2022-07-01T12:07:59;93686.88;;;36.26;17.99
20037;BME280;10179;42.640;23.312;2022-07-01T12:10:25;93722.13;;;36.53;17.24
20037;BME280;10179;42.640;23.312;2022-07-01T12:12:51;93709.91;;;36.29;16.68
20037;BME280;10179;42.640;23.312;2022-07-01T12:15:16;93740.75;;;36.22;17.35
20037;BME280;10179;42.640;23.312;2022-07-01T12:17:42;93730.59;;;36.12;16.72
20037;BME280;10179;42.640;23.312;2022-07-01T12:20:08;93734.44;;;36.04;17.00
20037;BME280;10179;42.640;23.312;2022-07-01T12:22:33;93704.69;;;35.88;16.36
20037;BME280;10179;42.640;23.312;2022-07-01T12:25:11;93714.50;;;36.00;16.15
20037;BME280;10179;42.640;23.312;2022-07-01T12:27:38;93718.81;;;36.01;16.43
20037;BME280;10179;42.640;23.312;2022-07-01T12:30:07;93721.13;;;35.95;17.34
20037;BME280;10179;42.640;23.312;2022-07-01T12:32:36;93713.66;;;35.85;17.55
20037;BME280;10179;42.640;23.312;2022-07-01T12:35:04;93574.19;;;34.98;17.60
20037;BME280;10179;42.640;23.312;2022-07-01T12:37:38;93687.41;;;35.77;17.92
20037;BME280;10179;42.640;23.312;2022-07-01T12:40:08;93719.59;;;36.05;18.78
20037;BME280;10179;42.640;23.312;2022-07-01T12:42:42;93696.94;;;36.01;18.46
20037;BME280;10179;42.640;23.312;2022-07-01T12:45:11;93705.56;;;36.10;18.72
20037;BME280;10179;42.640;23.312;2022-07-01T12:47:44;93695.41;;;36.07;18.86
20037;BME280;10179;42.640;23.312;2022-07-01T12:52:36;93705.50;;;35.99;18.10
20037;BME280;10179;42.640;23.312;2022-07-01T12:55:19;93691.81;;;35.96;18.59
20037;BME280;10179;42.640;23.312;2022-07-01T12:57:53;93699.22;;;35.92;17.80
20037;BME280;10179;42.640;23.312;2022-07-01T13:00:20;93681.16;;;35.73;18.50